Condividi:

Il Triangolo Imperiale 2018

10 giorni, 7 notti
QUOTE1461
Esclusiva Mistral Tour

IL VIAGGIO IN BREVE

È il 'triangolo d'oro' della Cina: le tre città più importanti del turismo cinese in un crescendo di emozioni. Un viaggio classico, entusiasmante, adatto a tutte le stagioni. E' la base perfetta per una combinazione con un altro paese orientale (Giappone, Corea, Mongolia) o con una estensione mare.

Partenze garantite di gruppo - ESCLUSIVE MISTRAL - due volte alla settimana (sabato e lunedì) dal 1 marzo al 28 febbraio 2019. In agosto, partenze anche alla Domenica.

Hotels di prima categoria superiore (a Pechino e Shanghai, gli hotels sono ubicati in pieno centro).

Pasti: pensione completa tranne 1 pranzo e 2 cene

Assistenza: accompagnatore cinese in lingua ITALIANA al seguito per Pechino e Xi'an (scelta tra lo staff esclusivo Mistral); a Shanghai l'assistenza sarà garantita da una guida locale, sempre in lingua italiana.

PERCHE' SCEGLIERE QUESTO VIAGGIO

104 partenze all'anno SEMPRE garantite, con accompagnatori cinesi in lingua italiana scelti fra lo staff esclusivo Mistral Tour.

Itinerario e scelta dei servizi sono il frutto di quasi 40 anni di esperienza e di viaggi in Cina.

Ufficio Mistral a Pechino con personale in lingua italiana con assistenza 24 ore su 24.

Prenotazione senza rischi: per la cancellazione del viaggio per QUALSIASI causa, anche all'ULTIMO momento, Mistral rimborserà l'INTERA quota di partecipazione, ad eccezione di un contributo spese forfettario (vedi pagina introduttiva)

Adeguamento valutario bloccato al momento della conferma del viaggio! (vedi dettagli nella pagina introduttiva).

  • Mistral Tour

Giorno/Località
  • 1 Italia/Pechino
  • 2 Pechino
  • 3 Pechino
  • 4 Pechino
  • 5 Pechino/Xi'an
  • 6 Xi'an
  • 7 Xi'an/Shanghai
  • 8 Shanghai
  • 9 - 10 Shanghai / Italia
Date di partenza Quote da (valori espressi in euro per persona)
Previous DoppiaSingolaTriplaChild
03/03/2018 1509 1923 1509 1269
05/03/2018 1509 1923 1509 1269
10/03/2018 1509 1923 1509 1269
12/03/2018 1509 1923 1509 1269
17/03/2018 1509 1923 1509 1269
19/03/2018 1509 1923 1509 1269
24/03/2018 1509 1923 1509 1269
26/03/2018 1581 1995 1581 1269
31/03/2018 1581 1995 1581 1269
02/04/2018 1581 1995 1581 1269
07/04/2018 1581 1995 1581 1269
09/04/2018 1581 1995 1581 1269
14/04/2018 1581 1995 1581 1269
16/04/2018 1581 1995 1581 1269
21/04/2018 1581 1995 1581 1269
23/04/2018 1581 1995 1581 1269
28/04/2018 1581 1995 1581 1269
30/04/2018 1581 1995 1581 1269
05/05/2018 1581 1995 1581 1269
07/05/2018 1581 1995 1581 1269
12/05/2018 1581 1995 1581 1269
14/05/2018 1581 1995 1581 1269
19/05/2018 1581 1995 1581 1269
21/05/2018 1509 1923 1509 1269
26/05/2018 1581 1995 1581 1269
28/05/2018 1581 1995 1581 1269
02/06/2018 1581 1995 1581 1269
04/06/2018 1581 1995 1581 1269
09/06/2018 1581 1995 1581 1269
11/06/2018 1581 1995 1581 1269
16/06/2018 1581 1995 1581 1269
18/06/2018 1581 1995 1581 1269
23/06/2018 1581 1995 1581 1269
25/06/2018 1581 1995 1581 1269
30/06/2018 1581 1995 1581 1269
02/07/2018 1725 2139 1725 1370
07/07/2018 1725 2139 1725 1370
09/07/2018 1725 2139 1725 1370
14/07/2018 1725 2139 1725 1370
16/07/2018 1725 2139 1725 1370
21/07/2018 1725 2139 1725 1370
23/07/2018 1725 2139 1725 1370
28/07/2018 1725 2139 1725 1370
30/07/2018 1725 2139 1725 1370
04/08/2018 1725 2139 1725 1370
05/08/2018 1725 2139 1725 1370
06/08/2018 1725 2139 1725 1370
11/08/2018 1725 2139 1725 1370
12/08/2018 1725 2139 1725 1370
13/08/2018 1725 2139 1725 1370
18/08/2018 1581 1995 1581 1269
20/08/2018 1581 1995 1581 1269
25/08/2018 1581 1995 1581 1269
27/08/2018 1581 1995 1581 1269
01/09/2018 1630 2093 1630 1330
03/09/2018 1630 2093 1630 1330
08/09/2018 1630 2093 1630 1330
10/09/2018 1630 2093 1630 1330
15/09/2018 1630 2093 1630 1330
17/09/2018 1630 2093 1630 1330
22/09/2018 1630 2093 1630 1330
24/09/2018 1630 2093 1630 1330
29/09/2018 1630 2093 1630 1330
01/10/2018 1630 2093 1630 1330
06/10/2018 1630 2093 1630 1330
08/10/2018 1630 2093 1630 1330
13/10/2018 1630 2093 1630 1330
15/10/2018 1630 2093 1630 1330
20/10/2018 1630 2093 1630 1330
22/10/2018 1630 2093 1630 1330
27/10/2018 1630 2093 1630 1330
29/10/2018 1630 2093 1630 1330
03/11/2018 1558 2021 1558 1330
05/11/2018 1558 2021 1558 1330
10/11/2018 1558 2021 1558 1330
12/11/2018 1558 2021 1558 1330
17/11/2018 1558 2021 1558 1330
19/11/2018 1558 2021 1558 1330
24/11/2018 1558 2021 1558 1330
26/11/2018 1558 2021 1558 1330
01/12/2018 1461 1777 1461 1196
03/12/2018 1461 1777 1461 1196
08/12/2018 1461 1777 1461 1196
10/12/2018 1461 1777 1461 1196
15/12/2018 1533 1849 1533 1196
17/12/2018 1461 1777 1461 1196
22/12/2018 1461 1777 1461 1196
24/12/2018 1461 1777 1461 1196
29/12/2018 1461 1777 1461 1196
31/12/2018 1461 1777 1461 1196
05/01/2019 1461 1777 1461 1196
12/01/2019 1461 1777 1461 1196
19/01/2019 1461 1777 1461 1196
16/02/2019 1461 1777 1461 1196
23/02/2019 1461 1777 1461 1196
Next I prezzi sono indicativi, si prega di contattare l'agenzia di viaggio per verificarne l'aggiornamento e la disponibilità
Torna all'inizio

Itinerario Giornaliero

1° giorno

Italia/Pechino
Partenza per Pechino con vettore di linea IATA. Volo notturno. Pasti e film a bordo.
Aeroporto di Pechino

2° giorno

Pechino
Arrivo in mattinata. Sistemazione in hotel. Pomeriggio a disposizione per il riposo ed una prima passeggiata in piazza Tienanmen.
Pranzo libero. Cena in ristorante.

Poche città al mondo possono vantare una storia tanto ricca e affascinante quanto Pechino. Disegnata a tavolino 600 anni fa secondo i dettami della geomanzia cinese, la città fu abbellita oltre ogni immaginazione di palazzi, templi, monasteri, giardini dal fascino fiabesco. Ancora all’inizio di questo secolo, Pechino si presentava suddivisa in tre città concentriche, separate fra loro da alte mura: nel centro, la Città Proibita, impenetrabile e misteriosa dimora del ‘Figlio del Cielo’; attorno, la città tartara, dove risiedeva la nobiltà imperiale; all’esterno, la città cinese, dove vivevano i cittadini e dove sorgeva il Tempio del Cielo, sede ufficiale del culto imperiale. Dopo l’avvento della Repubblica Popolare, Pechino subì un forte sconvolgimento urbanistico che, senza toccare alcuno dei monumenti, ha comunque modificato profondamente l’aspetto della città, rendendola una capitale moderna ed elegante. Ma il cuore di Pechino, la straordinaria Città Proibita, resiste impermeabile al tempo a testimoniare la gloria e i fasti del ‘Figlio del Cielo’.
Categoria Sistemazione Trattamento
4 / 5 stelle New Otani Changfugong / Beijing o similare Come da programma
Piazza Tienanmen

3° giorno

Pechino
Intera giornata di visite: la Città Proibita ed il Palazzo imperiale d'Estate. Pranzo in ristorante. In serata, banchetto speciale in ristorante con menu a base di anatra laccata.

Piccolo consiglio da intenditore: se volete farvi un’idea di come si svolgesse vita nella Città Proibita al tempo dell’Imperatore, guardatevi il dettagliatissimo film di Zhang Yi Mou ‘La città proibita’, oppure potete leggere il bellissimo libro di Reginald Johnston ‘Crepuscolo nella città proibita’, che racconta la vita dell’ultimo imperatore, che fu prigioniero in questo palazzo favoloso ed enigmatico fra il 1911 ed il 1925.
Categoria Sistemazione Trattamento
4 / 5 stelle New Otani Changfugong / Beijing o similare Come da programma
Città Proibita

4° giorno

Pechino
Intera giornata dedicata all’escursione alla Grande Muraglia, e, sulla via del ritorno, alla Via sacra, la straordinaria via d’accesso monumentale alle Tombe imperiali della Dinastia Ming.
Pranzo in corso di escursione. Cena libera.

La più colossale impresa architettonica della storia, realizzata più di duemila anni fa in tempi incredibilmente brevi: a leggere le cifre, c’è da rimanere stupefatti: lunga circa 6.500 km, alta mediamente 16 metri, larga fra i 5 e gli 8 metri, la Grande Muraglia Cinese si stende a difesa del continente cinese dalle rive del Mar Giallo, sopra Pechino, fino alle steppe interne della Provincia del Gansu. Si calcola che siano stati utilizzati 300 milioni di metri cubi di materiale....
Categoria Sistemazione Trattamento
4 / 5 stelle New Otani Changfugong / Beijing o similare Come da programma
Grande Muraglia

5° giorno

Pechino/Xi'an
In mattinata, visita al Tempio del Cielo. Nel pomeriggio, partenza in aereo per Xi'an. Trasferimento in albergo.
Pranzo in ristorante. Cena internazionale in albergo.


Xi’an è la città della storia: capitale dell’Impero per più di mille anni (fino al X sec.; allora si chiamava Chang’An, ‘‘pace protetta’’), fu il centro propulsore dell’arte e della cultura cinesi durante il periodo d’oro delle dinastie Song e Tang; era da qui che partiva il lungo cammino della via della seta. Xi’an conserva le spoglie mortali del primo imperatore della Cina unificata, il grande Qin Shi Huang Ti (III sec. a.C.), che fece costruire davanti al suo tumulo un intero esercito di soldati terracotta in assetto di guerra: seimila guerrieri a piedi e a cavallo a grandezza naturale, scolpiti ognuno con la propria fisionomia individuale. Fra le molte vestigia della gloria passata, merita una nota lo straordinario museo, che raccoglie una collezione impareggiabile di oggetti d’arte risalenti alle dinastie Han, Tang e Song. In tempi più recenti, durante la dinastia Ming, Xi’an fu dotata di una splendida cinta muraria, che ne fa ancora oggi una delle città più suggestive dell’Oriente.
Categoria Sistemazione Trattamento
4 / 5 stelle Grand Barony, Xinxin Days o similare Come da programma
Tempio del Cielo

6° giorno

Xi'an
Intera giornata dedicata alle visite: l'esercito di terracotta a Lingtong, la Pagoda buddhista della Piccola Oca, la cinta muraria della dinastia Ming, la Grande Moschea ed il quartiere musulmano. Pranzo in ristorante. Cena internazionale in hotel.


Qin Shihuang Di (259- 210 a.C.) fu il primo imperatore ad unificare la Cina, rendendola un territorio unito per lingua, politica, cultura e tradizione. Fu lui l’artefice della Grande Muraglia, ideata come stratagemma di isolamento dalle invasioni dei Mongoli delle steppe. Alla sua faraonica tomba, non ancora riportata alla luce, lavorarono circa 700.000 uomini per più di 40 anni... A guardia di questo immenso tesoro fu messo un intero esercito di 8.000 guerrieri... di terracotta. Di questo esercito (scoperto solo nel 1974) sono stati riportati alla luce finora solo 500 guerrieri, 18 carri e 100 cavalli. Il lavoro degli archeologi prosegue instancabile e ogni anno è possibile apprezzare le nuove, entusiasmanti scoperte.
Categoria Sistemazione Trattamento
4 / 5 stelle Grand Barony, Xinxin Days o similare Come da programma
Moschea Xi'an

7° giorno

Xi'an/Shanghai
In mattinata, completamento del programma delle visite: il Piccolo esercito di terracotta (Han Yang Ling Museum). In tempo utile, volo per Shanghai. Sistemazione in albergo.
Pranzo in ristorante. Cena libera.


Shanghai è la città più moderna, elegante e raffinata della Cina: nel 1840 non era che un piccolo borgo di pescatori quando, a seguito della Guerra dell’Oppio, fu data in concessione agli Europei ed agli Americani. Da allora Shanghai crebbe in modo tumultuoso: banche, grandi magazzini, alberghi, parchi, grandi arterie commerciali, chiese e palazzi ne fecero una città straordinariamente elegante; gli Occidentali portarono con sé le loro abitudini e il loro stile di vita, fino ad allora totalmente sconosciuti ai Cinesi; in breve la città si guadagnò l’appellativo di ‘Parigi d’Oriente’ e non c’era lusso o piacere, per quanto proibito, che non fosse possibile trovarvi. Anche oggi, a cinquant’anni dalla rivoluzione, nelle vie del centro e sul Bund (il celebre lungofiume) a Shanghai sopravvive intatta quell’atmosfera struggente da ‘belle époque’ di inizio secolo; nello stesso tempo, strade sopraelevate, ponti avveniristici e grattacieli di vetro proiettano la città con sicurezza verso il futuro.
Categoria Sistemazione Trattamento
4 / 5 stelle River View o similare Come da programma
Han Yang Ling Museum

8° giorno

Shanghai
Pensione completa. Intera giornata di visite: Il Tempio del Buddha di Giada, il giardino di Yu, la città vecchia, la via Nanchino ed il Bund. Tempo a disposizione per lo shopping nei negozi del centro. Pranzo in ristorante. Cena in ristorante tipico.



Piccolo consiglio dell’esperto: quando cala la sera, fatevi un giro nel quartiere di Xintiandi, il cuore pulsante della nuova Shanghai, ricavato da un angolo della concessione francese opportunamente restaurato: accanto all’edificio in cui nacque il partito comunista cinese (nel 1921) e alle ville in cui abitarono Sun Yat Sen ed altri protagonisti della vita politica cinese di inizio secolo scorso, sorgono adesso atéliers di artisti, ristoranti, locali di tendenza, negozi d’arte: qui si raduna la gente elegante (locale e straniera) di Shanghai, in un fervore di luci, musica, aromi e sapori. Luogo ideale per cenare o bersi una buona birra, nell’atmosfera sognante della Grande Mela d’Oriente.
Categoria Sistemazione Trattamento
4 / 5 stelle River View o similare
Aeroporto internazionale di Shanghai-Pudong

9 - 10° giorno

Shanghai / Italia
Ultime ore a disposizione. Pasti liberi.
In tempo utile, trasferimento in aeroporto e partenza in volo per l'Italia o per la destinazione successiva.
Aeroporto internazionale di Shanghai-Pudong

Il Quality Group